Time;durP1;ratioP1;P1;durP2;ratioP2;P2;SDS_P1;SDS_P2;PMS_P1;PMS_P2;Temp;Humidity;BMP_temperature;BMP_pressure;BME280_temperature;BME280_humidity;BME280_pressure;Samples;Min_cycle;Max_cycle;Signal;HPM_P1;HPM_P2
2022/09/10 00:01:36;;;;;;;;;10.50;9.25;;;28.13;101090.66;;;;117142;1192;24815;-67
2022/09/10 00:04:09;;;;;;;;;9.25;9.25;;;28.09;101092.64;;;;117088;1192;24820;-65
2022/09/10 00:06:38;;;;;;;;;10.00;8.75;;;28.11;101083.64;;;;117129;1192;24875;-66
2022/09/10 00:09:07;;;;;;;;;9.75;9.75;;;28.11;101074.41;;;;117141;1193;25527;-67
2022/09/10 00:11:37;;;;;;;;;9.75;9.00;;;28.09;101073.77;;;;117053;1193;25291;-65
2022/09/10 00:14:10;;;;;;;;;13.33;10.67;;;28.06;101077.37;;;;117048;1191;25539;-66
2022/09/10 00:16:38;;;;;;;;;10.33;10.33;;;28.09;101085.69;;;;117101;1193;25250;-67
2022/09/10 00:19:07;;;;;;;;;9.00;8.33;;;28.06;101088.36;;;;117086;1193;24937;-66
2022/09/10 00:21:36;;;;;;;;;11.25;10.00;;;28.08;101087.16;;;;117025;1192;25080;-65
2022/09/10 00:24:05;;;;;;;;;10.50;8.75;;;28.07;101080.54;;;;117038;1194;25038;-65
2022/09/10 00:26:38;;;;;;;;;12.25;10.25;;;28.06;101075.11;;;;117046;1193;24775;-66
2022/09/10 00:29:09;;;;;;;;;10.50;10.00;;;28.09;101069.77;;;;117135;1192;25653;-65
2022/09/10 00:31:38;;;;;;;;;10.50;8.75;;;28.09;101066.80;;;;117107;1193;24764;-65
2022/09/10 00:34:07;;;;;;;;;13.25;10.50;;;28.11;101070.73;;;;117082;1193;25297;-67
2022/09/10 00:36:41;;;;;;;;;10.75;10.75;;;28.05;101075.26;;;;117075;1193;25797;-66
2022/09/10 00:39:13;;;;;;;;;11.67;9.33;;;28.06;101080.45;;;;117127;1190;26188;-66
2022/09/10 00:41:44;;;;;;;;;11.75;10.25;;;28.07;101074.30;;;;117021;1193;25464;-66
2022/09/10 00:44:40;;;;;;;;;9.00;8.00;;;28.05;101073.38;;;;117040;1193;25732;-66
2022/09/10 00:47:17;;;;;;;;;11.50;9.25;;;28.06;101075.05;;;;117124;1192;25395;-65
2022/09/10 00:49:53;;;;;;;;;10.00;8.25;;;28.03;101073.72;;;;117042;1194;25345;-65
2022/09/10 00:52:22;;;;;;;;;7.75;7.25;;;28.07;101071.24;;;;117043;1192;25662;-66
2022/09/10 00:54:50;;;;;;;;;11.50;9.25;;;28.08;101067.92;;;;117077;1193;25647;-65
2022/09/10 00:57:21;;;;;;;;;13.00;9.50;;;28.04;101064.57;;;;117056;1193;25070;-65
2022/09/10 00:59:54;;;;;;;;;12.00;9.33;;;28.04;101062.29;;;;117030;1193;24925;-65
2022/09/10 01:02:25;;;;;;;;;11.67;9.67;;;28.06;101059.71;;;;117045;1193;25545;-66
2022/09/10 01:04:55;;;;;;;;;15.75;11.00;;;28.08;101059.14;;;;117107;1191;24980;-66
2022/09/10 01:07:28;;;;;;;;;13.00;11.00;;;28.08;101058.11;;;;117110;1192;25132;-67
2022/09/10 01:09:58;;;;;;;;;14.00;12.00;;;28.05;101056.58;;;;117105;1192;25145;-66
2022/09/10 01:12:35;;;;;;;;;10.00;10.00;;;28.05;101055.45;;;;117088;1193;24984;-66
2022/09/10 01:15:24;;;;;;;;;8.75;8.75;;;28.05;101056.95;;;;117098;1192;25911;-65
2022/09/10 01:18:09;;;;;;;;;7.75;7.50;;;28.05;101056.98;;;;117107;1193;25125;-66
2022/09/10 01:21:02;;;;;;;;;12.00;9.50;;;28.03;101055.61;;;;117099;1193;25182;-64
2022/09/10 01:23:52;;;;;;;;;10.75;10.00;;;28.05;101053.22;;;;117151;1192;24781;-66
2022/09/10 01:26:46;;;;;;;;;12.75;12.75;;;28.04;101060.02;;;;117099;1193;25418;-65
2022/09/10 01:29:41;;;;;;;;;10.00;8.75;;;28.00;101056.68;;;;117161;1193;25139;-65
2022/09/10 01:32:14;;;;;;;;;10.33;9.33;;;28.01;101055.47;;;;117025;1193;25491;-66
2022/09/10 01:34:44;;;;;;;;;11.00;9.75;;;28.02;101052.52;;;;117122;1191;25168;-65
2022/09/10 01:37:20;;;;;;;;;10.50;9.00;;;28.01;101052.47;;;;117097;1193;25085;-66
2022/09/10 01:39:50;;;;;;;;;14.50;10.00;;;28.03;101049.86;;;;117119;1192;25285;-66
2022/09/10 01:42:19;;;;;;;;;11.00;10.00;;;28.03;101048.92;;;;117144;1193;24677;-65
2022/09/10 01:44:49;;;;;;;;;6.25;6.25;;;28.03;101051.85;;;;117004;1193;25103;-66
2022/09/10 01:47:32;;;;;;;;;11.25;8.50;;;28.02;101052.23;;;;117128;1193;25605;-66
2022/09/10 01:50:20;;;;;;;;;9.25;8.50;;;28.01;101051.46;;;;117102;1193;25226;-65
2022/09/10 01:53:15;;;;;;;;;8.50;7.50;;;28.00;101048.37;;;;117097;1191;25439;-66
2022/09/10 01:56:12;;;;;;;;;9.33;7.67;;;28.02;101053.96;;;;117115;1193;25679;-66
2022/09/10 01:58:42;;;;;;;;;13.00;9.25;;;28.03;101053.95;;;;117033;1193;25032;-66
2022/09/10 02:01:20;;;;;;;;;13.00;13.00;;;28.00;101051.80;;;;117016;1193;25449;-66
2022/09/10 02:03:53;;;;;;;;;11.67;10.67;;;28.01;101051.70;;;;117146;1192;25115;-66
2022/09/10 02:06:25;;;;;;;;;11.00;9.67;;;27.98;101047.56;;;;117119;1191;25138;-65
2022/09/10 02:08:55;;;;;;;;;12.75;9.00;;;28.00;101040.92;;;;117107;1193;25712;-65
2022/09/10 02:11:23;;;;;;;;;13.00;11.75;;;28.02;101038.30;;;;117118;1193;25078;-66
2022/09/10 02:13:52;;;;;;;;;10.00;9.50;;;28.01;101039.20;;;;117058;1193;25326;-66
2022/09/10 02:16:26;;;;;;;;;9.50;9.25;;;27.98;101038.53;;;;117046;1193;25029;-65
2022/09/10 02:18:55;;;;;;;;;9.00;8.00;;;27.97;101043.25;;;;117069;1194;25717;-66
2022/09/10 02:21:24;;;;;;;;;11.00;9.33;;;27.98;101040.20;;;;117106;1193;25760;-66
2022/09/10 02:23:55;;;;;;;;;8.50;8.50;;;27.98;101036.23;;;;117094;1191;24976;-66
2022/09/10 02:26:27;;;;;;;;;14.00;12.25;;;27.98;101036.73;;;;117049;1193;26322;-65
2022/09/10 02:28:55;;;;;;;;;11.00;10.25;;;28.00;101036.83;;;;117016;1193;24877;-65
2022/09/10 02:31:24;;;;;;;;;11.75;11.75;;;27.97;101034.19;;;;117006;1193;25278;-66
2022/09/10 02:33:53;;;;;;;;;7.75;7.75;;;27.97;101033.52;;;;117012;1192;25219;-65
2022/09/10 02:36:24;;;;;;;;;9.50;9.25;;;27.99;101032.12;;;;117030;1193;24764;-66
2022/09/10 02:38:55;;;;;;;;;10.75;10.25;;;27.98;101028.28;;;;116808;1194;24897;-69
2022/09/10 02:41:24;;;;;;;;;8.75;8.25;;;27.97;101029.19;;;;116998;1193;24710;-69
2022/09/10 02:43:53;;;;;;;;;9.50;9.00;;;28.00;101029.79;;;;116954;1193;25517;-68
2022/09/10 02:46:22;;;;;;;;;11.25;10.25;;;27.99;101030.55;;;;117043;1194;25248;-70
2022/09/10 02:48:50;;;;;;;;;12.25;9.25;;;27.99;101031.16;;;;117028;1195;25557;-68
2022/09/10 02:51:18;;;;;;;;;13.00;11.00;;;27.96;101030.94;;;;116779;1194;24851;-65
2022/09/10 02:53:48;;;;;;;;;8.75;8.75;;;27.94;101032.50;;;;116897;1194;25408;-65
2022/09/10 02:56:18;;;;;;;;;12.25;10.50;;;27.95;101030.63;;;;116884;1194;25674;-65
2022/09/10 02:58:47;;;;;;;;;13.33;11.67;;;27.95;101029.80;;;;116895;1194;25212;-65
2022/09/10 03:01:18;;;;;;;;;9.50;8.00;;;27.94;101029.00;;;;117000;1193;25377;-65
2022/09/10 03:03:51;;;;;;;;;14.75;10.25;;;27.96;101025.63;;;;117024;1194;25688;-64
2022/09/10 03:06:22;;;;;;;;;10.50;9.25;;;27.95;101024.06;;;;117012;1193;25666;-65
2022/09/10 03:08:51;;;;;;;;;10.67;9.33;;;27.97;101023.80;;;;117111;1193;24803;-65
2022/09/10 03:11:22;;;;;;;;;10.67;9.67;;;27.95;101023.66;;;;117051;1194;24934;-67
2022/09/10 03:13:51;;;;;;;;;8.50;8.50;;;27.94;101018.92;;;;117058;1193;25424;-67
2022/09/10 03:16:20;;;;;;;;;11.75;10.25;;;27.94;101018.10;;;;116842;1194;25397;-65
2022/09/10 03:18:48;;;;;;;;;9.50;8.75;;;27.96;101017.38;;;;117005;1194;25455;-65
2022/09/10 03:21:19;;;;;;;;;8.50;8.50;;;27.91;101012.35;;;;116861;1194;25311;-66
2022/09/10 03:23:49;;;;;;;;;14.50;9.25;;;27.92;101001.45;;;;117063;1192;25715;-66
2022/09/10 03:26:19;;;;;;;;;10.75;10.00;;;27.93;100999.18;;;;117015;1194;25197;-66
2022/09/10 03:28:48;;;;;;;;;10.25;8.25;;;27.91;100998.42;;;;117026;1194;24971;-66
2022/09/10 03:31:17;;;;;;;;;9.50;9.50;;;27.94;100997.42;;;;117044;1193;25339;-66
2022/09/10 03:33:46;;;;;;;;;10.00;10.00;;;27.92;100992.98;;;;117030;1194;25466;-65
2022/09/10 03:36:14;;;;;;;;;9.00;7.00;;;27.95;100992.36;;;;117069;1193;24760;-66
2022/09/10 03:38:43;;;;;;;;;10.67;9.00;;;27.94;100991.15;;;;116825;1193;25661;-66
2022/09/10 03:41:12;;;;;;;;;13.00;10.50;;;27.95;100989.29;;;;117039;1193;25133;-65
2022/09/10 03:43:40;;;;;;;;;13.50;10.50;;;27.94;100993.58;;;;117056;1194;25063;-65
2022/09/10 03:46:10;;;;;;;;;10.00;9.00;;;27.92;100995.67;;;;117089;1193;25050;-65
2022/09/10 03:48:39;;;;;;;;;10.25;9.25;;;27.93;100998.98;;;;116915;1193;24857;-65
2022/09/10 03:51:09;;;;;;;;;8.00;7.25;;;27.94;100999.25;;;;117094;1191;25156;-67
2022/09/10 03:53:38;;;;;;;;;8.33;8.33;;;27.98;100998.42;;;;117055;1193;25427;-68
2022/09/10 03:56:07;;;;;;;;;10.00;10.00;;;28.00;100989.02;;;;117103;1192;25042;-68
2022/09/10 03:58:36;;;;;;;;;8.67;8.33;;;27.98;100984.21;;;;117102;1192;25503;-66
2022/09/10 04:01:04;;;;;;;;;9.33;9.33;;;28.00;100983.50;;;;117303;1192;24960;-66
2022/09/10 04:03:33;;;;;;;;;11.50;8.50;;;28.02;100985.48;;;;116888;1192;24972;-66
2022/09/10 04:06:02;;;;;;;;;13.75;11.25;;;27.99;100984.77;;;;117070;1192;25240;-66
2022/09/10 04:08:30;;;;;;;;;9.00;9.00;;;28.00;100983.05;;;;117097;1191;25133;-69
2022/09/10 04:11:03;;;;;;;;;9.25;8.25;;;27.97;100982.48;;;;117032;1194;25645;-67
2022/09/10 04:13:31;;;;;;;;;8.50;7.25;;;27.94;100986.20;;;;117381;1190;25104;-68
2022/09/10 04:16:00;;;;;;;;;9.50;9.50;;;27.93;100985.50;;;;117050;1193;25411;-66
2022/09/10 04:18:30;;;;;;;;;10.75;10.00;;;27.92;100987.80;;;;117159;1191;24868;-65
2022/09/10 04:20:59;;;;;;;;;11.00;10.33;;;27.91;100989.41;;;;117069;1192;25718;-66
2022/09/10 04:23:28;;;;;;;;;6.50;6.50;;;27.91;100991.36;;;;117054;1193;24944;-67
2022/09/10 04:25:56;;;;;;;;;6.50;5.25;;;27.93;100998.06;;;;117055;1193;25223;-65
2022/09/10 04:28:25;;;;;;;;;10.50;9.50;;;27.90;100998.04;;;;117045;1192;25105;-66
2022/09/10 04:30:53;;;;;;;;;9.50;9.25;;;27.89;101000.16;;;;117095;1192;25424;-67
2022/09/10 04:33:23;;;;;;;;;8.75;8.75;;;27.90;101002.84;;;;117099;1193;24951;-66
2022/09/10 04:35:52;;;;;;;;;10.50;10.00;;;27.89;101003.65;;;;117088;1192;24695;-67
2022/09/10 04:38:20;;;;;;;;;11.75;10.50;;;27.87;101007.02;;;;117186;1192;25718;-65
2022/09/10 04:40:49;;;;;;;;;8.50;8.50;;;27.88;101005.89;;;;117146;1191;24890;-67
2022/09/10 04:43:17;;;;;;;;;12.50;10.25;;;27.88;101006.98;;;;117072;1189;25250;-66
2022/09/10 04:45:46;;;;;;;;;10.33;10.33;;;27.86;101006.69;;;;117135;1193;25365;-66
2022/09/10 04:48:15;;;;;;;;;11.25;11.25;;;27.87;101007.96;;;;117060;1191;25376;-67
2022/09/10 04:50:43;;;;;;;;;12.00;9.00;;;27.84;101010.83;;;;117214;1191;25643;-66
2022/09/10 04:53:33;;;;;;;;;8.67;8.67;;;27.89;101015.91;;;;117106;1191;24867;-66
2022/09/10 04:56:02;;;;;;;;;9.50;9.50;;;27.91;101022.66;;;;117117;1192;24925;-67
2022/09/10 04:58:30;;;;;;;;;10.00;8.00;;;27.91;101025.82;;;;117158;1192;25085;-66
2022/09/10 05:01:05;;;;;;;;;11.25;10.50;;;27.90;101024.43;;;;117185;1191;25499;-66
2022/09/10 05:03:34;;;;;;;;;9.75;8.00;;;27.89;101022.77;;;;117042;1194;25259;-67
2022/09/10 05:06:03;;;;;;;;;7.33;7.33;;;27.87;101018.20;;;;117092;1191;24997;-66
2022/09/10 05:08:32;;;;;;;;;7.50;6.25;;;27.92;101012.46;;;;117419;1191;25762;-66
2022/09/10 05:11:01;;;;;;;;;10.00;8.67;;;27.91;101013.69;;;;117073;1192;25716;-65
2022/09/10 05:13:30;;;;;;;;;5.67;5.67;;;27.90;101017.98;;;;117047;1193;25422;-65
2022/09/10 05:15:58;;;;;;;;;10.33;10.33;;;27.92;101011.99;;;;117036;1193;25326;-65
2022/09/10 05:18:27;;;;;;;;;10.00;8.75;;;27.94;101011.57;;;;117047;1191;25371;-66
2022/09/10 05:20:56;;;;;;;;;9.67;9.00;;;27.99;101012.14;;;;117061;1192;25782;-65
2022/09/10 05:23:25;;;;;;;;;10.00;10.00;;;27.94;101015.27;;;;117052;1192;25215;-65
2022/09/10 05:25:55;;;;;;;;;10.25;9.25;;;27.98;101013.97;;;;117101;1190;24724;-61
2022/09/10 05:28:23;;;;;;;;;10.67;9.00;;;28.01;101012.71;;;;117038;1193;25170;-65
2022/09/10 05:30:52;;;;;;;;;12.33;8.67;;;28.00;101013.11;;;;117008;1193;25417;-64
2022/09/10 05:33:20;;;;;;;;;10.00;10.00;;;27.99;101009.65;;;;117010;1193;25680;-65
2022/09/10 05:35:51;;;;;;;;;9.50;9.50;;;27.99;101007.33;;;;116970;1193;25692;-65
2022/09/10 05:38:20;;;;;;;;;10.00;10.00;;;28.02;101008.39;;;;117068;1192;24919;-66
2022/09/10 05:40:49;;;;;;;;;11.75;9.25;;;28.03;101007.30;;;;117203;1192;25697;-66
2022/09/10 05:43:17;;;;;;;;;16.00;12.00;;;28.05;101005.77;;;;117019;1193;25205;-67
2022/09/10 05:45:46;;;;;;;;;12.75;9.25;;;28.05;101002.17;;;;117001;1193;25019;-67
2022/09/10 05:48:14;;;;;;;;;11.33;8.00;;;28.04;101000.66;;;;117009;1193;25358;-64
2022/09/10 05:50:46;;;;;;;;;14.33;9.33;;;28.06;100996.48;;;;117020;1192;25712;-59
2022/09/10 05:53:15;;;;;;;;;14.25;13.25;;;28.22;100997.89;;;;117033;1193;25108;-57
2022/09/10 05:55:44;;;;;;;;;10.67;8.00;;;28.64;100995.46;;;;117113;1191;24870;-59
2022/09/10 05:58:13;;;;;;;;;12.25;11.00;;;28.94;100988.19;;;;116977;1193;25312;-58
2022/09/10 06:00:44;;;;;;;;;14.25;11.50;;;29.11;100986.80;;;;116943;1193;25308;-60
2022/09/10 06:03:13;;;;;;;;;9.50;9.25;;;29.25;100988.36;;;;116998;1193;25151;-57
2022/09/10 06:05:50;;;;;;;;;18.67;13.33;;;29.24;100988.23;;;;116925;1192;25294;-58
2022/09/10 06:08:22;;;;;;;;;16.33;14.67;;;29.28;100985.23;;;;116970;1193;25155;-61
2022/09/10 06:10:59;;;;;;;;;10.00;10.00;;;29.26;100983.00;;;;117004;1192;25383;-59
2022/09/10 06:13:27;;;;;;;;;10.33;9.67;;;29.23;100985.32;;;;117008;1193;25003;-62
2022/09/10 06:15:56;;;;;;;;;10.50;9.25;;;29.29;100985.29;;;;116999;1193;24846;-62
2022/09/10 06:18:24;;;;;;;;;9.25;9.25;;;29.28;100989.17;;;;117009;1193;24849;-58
2022/09/10 06:21:08;;;;;;;;;9.00;9.00;;;29.29;100981.44;;;;117045;1192;25709;-59
2022/09/10 06:23:38;;;;;;;;;10.00;10.00;;;29.26;100982.04;;;;116943;1192;25263;-60
2022/09/10 06:26:09;;;;;;;;;9.00;9.00;;;29.25;100976.90;;;;116967;1193;25041;-60
2022/09/10 06:28:38;;;;;;;;;10.75;10.25;;;29.24;100969.21;;;;117037;1193;25330;-60
2022/09/10 06:31:10;;;;;;;;;11.00;11.00;;;29.21;100964.23;;;;117078;1193;25309;-60
2022/09/10 06:33:39;;;;;;;;;9.50;9.50;;;29.16;100961.73;;;;117053;1193;24934;-60
2022/09/10 06:36:08;;;;;;;;;14.33;10.67;;;29.19;100962.95;;;;116981;1193;25524;-60
2022/09/10 06:38:37;;;;;;;;;11.50;7.25;;;29.13;100958.70;;;;117114;1193;25640;-63
2022/09/10 06:41:07;;;;;;;;;9.25;9.25;;;29.09;100963.70;;;;117019;1192;25061;-62
2022/09/10 06:43:36;;;;;;;;;8.50;8.50;;;29.08;100962.23;;;;117012;1193;24745;-62
2022/09/10 06:46:12;;;;;;;;;10.50;9.25;;;29.03;100961.45;;;;117020;1193;25248;-63
2022/09/10 06:49:02;;;;;;;;;8.33;7.67;;;29.10;100965.34;;;;116722;1192;24966;-55
2022/09/10 06:51:32;;;;;;;;;8.00;5.50;;;29.13;100960.23;;;;116976;1193;25590;-59
2022/09/10 06:54:01;;;;;;;;;12.50;9.00;;;29.06;100958.95;;;;117077;1192;25662;-60
2022/09/10 06:56:30;;;;;;;;;7.75;5.25;;;29.00;100960.04;;;;117092;1192;25329;-60
2022/09/10 06:58:58;;;;;;;;;11.00;9.00;;;28.92;100957.59;;;;117028;1190;25068;-61
2022/09/10 07:01:30;;;;;;;;;9.25;8.50;;;28.97;100958.98;;;;116953;1193;25042;-61
2022/09/10 07:04:00;;;;;;;;;10.00;8.67;;;28.83;100955.76;;;;117009;1193;25710;-61
2022/09/10 07:06:34;;;;;;;;;10.50;10.25;;;28.83;100956.84;;;;117176;1193;24762;-61
2022/09/10 07:09:03;;;;;;;;;8.33;8.33;;;28.84;100961.93;;;;117042;1191;24952;-63
2022/09/10 07:11:32;;;;;;;;;6.00;6.00;;;28.85;100966.15;;;;117084;1192;25178;-61
2022/09/10 07:14:06;;;;;;;;;7.67;7.67;;;28.84;100968.49;;;;117013;1193;25091;-64
2022/09/10 07:16:34;;;;;;;;;10.00;7.67;;;28.87;100968.13;;;;116971;1193;24720;-59
2022/09/10 07:19:03;;;;;;;;;10.00;7.67;;;28.86;100966.67;;;;117017;1193;25109;-59
2022/09/10 07:21:31;;;;;;;;;10.25;9.25;;;28.86;100965.52;;;;117070;1193;25298;-59
2022/09/10 07:24:03;;;;;;;;;10.67;8.67;;;28.88;100960.22;;;;116977;1193;25239;-63
2022/09/10 07:26:32;;;;;;;;;8.00;6.25;;;28.88;100962.38;;;;117061;1193;25023;-66
2022/09/10 07:29:00;;;;;;;;;8.33;7.67;;;28.94;100950.44;;;;117137;1192;25112;-64
2022/09/10 07:31:32;;;;;;;;;12.25;8.25;;;28.98;100946.48;;;;117006;1193;25337;-65
2022/09/10 07:34:02;;;;;;;;;11.33;9.00;;;28.97;100953.57;;;;117018;1191;24978;-62
2022/09/10 07:36:31;;;;;;;;;7.67;7.33;;;28.90;100945.01;;;;117118;1191;25505;-67
2022/09/10 07:39:03;;;;;;;;;10.00;9.33;;;28.98;100948.10;;;;117115;1192;25038;-66
2022/09/10 07:41:34;;;;;;;;;4.75;4.75;;;29.02;100950.59;;;;117127;1191;25199;-62
2022/09/10 07:44:03;;;;;;;;;10.00;9.00;;;29.03;100946.70;;;;117083;1192;24800;-58
2022/09/10 07:46:32;;;;;;;;;11.67;8.33;;;29.09;100946.52;;;;117107;1192;24830;-62
2022/09/10 07:49:00;;;;;;;;;9.25;8.50;;;29.14;100942.20;;;;117107;1192;25188;-62
2022/09/10 07:51:31;;;;;;;;;8.50;7.50;;;29.20;100943.20;;;;117153;1191;24821;-67
2022/09/10 07:54:00;;;;;;;;;10.00;9.50;;;29.21;100938.98;;;;117085;1191;24751;-66
2022/09/10 07:56:30;;;;;;;;;8.00;6.00;;;29.25;100935.52;;;;117004;1193;24897;-64
2022/09/10 07:59:01;;;;;;;;;8.00;8.00;;;29.26;100935.27;;;;117053;1193;25123;-66
2022/09/10 08:01:30;;;;;;;;;11.00;8.33;;;29.29;100940.41;;;;117020;1193;25073;-64
2022/09/10 08:03:59;;;;;;;;;7.67;7.67;;;29.34;100941.27;;;;117101;1193;25187;-65
2022/09/10 08:06:27;;;;;;;;;6.33;5.67;;;29.34;100942.52;;;;117066;1191;25502;-65
2022/09/10 08:08:56;;;;;;;;;10.33;7.33;;;29.37;100936.73;;;;117038;1193;25311;-64
2022/09/10 08:11:25;;;;;;;;;8.25;7.50;;;29.35;100939.88;;;;116982;1191;24806;-64
2022/09/10 08:13:55;;;;;;;;;10.00;8.33;;;29.38;100944.36;;;;117094;1193;25545;-63
2022/09/10 08:16:24;;;;;;;;;9.75;7.50;;;29.39;100949.27;;;;117058;1192;25650;-64
2022/09/10 08:18:57;;;;;;;;;6.75;5.50;;;29.40;100944.81;;;;117139;1191;25082;-66
2022/09/10 08:21:26;;;;;;;;;9.00;6.00;;;29.42;100946.63;;;;117115;1191;25250;-65
2022/09/10 08:23:55;;;;;;;;;6.00;6.00;;;29.42;100945.31;;;;117124;1193;25278;-65
2022/09/10 08:26:24;;;;;;;;;9.00;7.00;;;29.45;100940.54;;;;117122;1192;25343;-62
2022/09/10 08:28:54;;;;;;;;;5.75;4.25;;;29.40;100944.11;;;;117094;1193;25185;-65
2022/09/10 08:31:25;;;;;;;;;7.50;7.25;;;29.39;100938.18;;;;117069;1193;26177;-65
2022/09/10 08:33:55;;;;;;;;;7.25;7.25;;;29.42;100933.89;;;;117139;1192;25261;-65
2022/09/10 08:36:25;;;;;;;;;8.00;8.00;;;29.45;100929.39;;;;117315;1191;25378;-66
2022/09/10 08:38:53;;;;;;;;;7.33;7.00;;;29.46;100931.11;;;;117111;1193;25290;-66
2022/09/10 08:41:39;;;;;;;;;9.00;7.00;;;29.45;100929.77;;;;117014;1193;24800;-66
2022/09/10 08:44:07;;;;;;;;;9.25;6.50;;;29.47;100930.54;;;;117085;1191;25064;-63
2022/09/10 08:46:54;;;;;;;;;8.00;6.00;;;29.45;100936.50;;;;117196;1191;24778;-67
2022/09/10 08:49:37;;;;;;;;;8.67;6.67;;;29.50;100939.84;;;;117261;1191;25756;-67
2022/09/10 08:52:28;;;;;;;;;7.00;5.00;;;29.49;100938.82;;;;117216;1191;25037;-66
2022/09/10 08:55:10;;;;;;;;;6.25;6.25;;;29.48;100934.25;;;;117195;1191;25746;-66
2022/09/10 08:57:46;;;;;;;;;6.00;6.00;;;29.46;100927.21;;;;117044;1192;25401;-65
2022/09/10 09:00:20;;;;;;;;;5.50;5.50;;;29.49;100926.84;;;;117345;1190;25030;-64
2022/09/10 09:03:09;;;;;;;;;8.25;7.25;;;29.50;100925.89;;;;117096;1191;25093;-66
2022/09/10 09:05:55;;;;;;;;;8.50;6.00;;;29.50;100921.79;;;;117002;1193;25634;-65
2022/09/10 09:08:26;;;;;;;;;10.00;8.67;;;29.46;100919.25;;;;117038;1193;24905;-67
2022/09/10 09:11:13;;;;;;;;;6.33;6.33;;;29.45;100914.16;;;;117187;1192;25234;-69
2022/09/10 09:14:09;;;;;;;;;7.75;7.75;;;29.58;100908.66;;;;117847;1192;24832;-66
2022/09/10 09:17:04;;;;;;;;;8.50;6.00;;;29.73;100902.81;;;;117003;1192;24894;-67
2022/09/10 09:19:44;;;;;;;;;6.00;6.00;;;29.67;100898.27;;;;117648;1192;24832;-66
2022/09/10 09:22:23;;;;;;;;;13.00;8.00;;;29.73;100895.01;;;;117110;1193;25549;-65
2022/09/10 09:25:02;;;;;;;;;11.33;8.00;;;29.70;100884.48;;;;117183;1193;24944;-64
2022/09/10 09:27:34;;;;;;;;;9.00;6.75;;;29.65;100883.10;;;;117109;1192;25139;-64
2022/09/10 09:30:23;;;;;;;;;8.67;7.33;;;29.61;100876.89;;;;117123;1193;25166;-60
2022/09/10 09:32:54;;;;;;;;;4.67;4.33;;;29.62;100880.66;;;;117045;1193;25503;-65
2022/09/10 09:35:27;;;;;;;;;9.00;9.00;;;29.59;100877.30;;;;117144;1192;26192;-68
2022/09/10 09:38:39;;;;;;;;;8.25;7.75;;;29.49;100875.70;;;;117180;1192;25182;-66
2022/09/10 09:41:29;;;;;;;;;10.50;8.25;;;29.60;100871.02;;;;117294;1192;25188;-66
2022/09/10 09:44:01;;;;;;;;;7.75;6.75;;;29.59;100873.97;;;;117140;1193;24843;-67
2022/09/10 09:46:29;;;;;;;;;9.00;7.00;;;29.56;100862.71;;;;117122;1191;25378;-65
2022/09/10 09:49:00;;;;;;;;;11.00;9.00;;;29.53;100864.21;;;;117120;1193;25663;-66
2022/09/10 09:51:34;;;;;;;;;7.75;6.75;;;29.48;100859.23;;;;117101;1192;24925;-64
2022/09/10 09:54:07;;;;;;;;;9.00;8.00;;;29.48;100854.64;;;;117146;1193;24840;-63
2022/09/10 09:57:00;;;;;;;;;9.00;7.67;;;29.49;100844.08;;;;117128;1193;25281;-65
2022/09/10 09:59:29;;;;;;;;;7.25;6.50;;;29.50;100844.30;;;;117138;1192;24888;-62
2022/09/10 10:02:10;;;;;;;;;7.00;7.00;;;29.49;100848.70;;;;117108;1192;25420;-60
2022/09/10 10:04:41;;;;;;;;;9.00;9.00;;;29.47;100849.48;;;;117029;1191;25388;-61
2022/09/10 10:07:10;;;;;;;;;9.00;7.50;;;29.46;100841.92;;;;117037;1191;25532;-61
2022/09/10 10:09:43;;;;;;;;;10.33;9.33;;;29.48;100846.93;;;;116995;1192;25273;-60
2022/09/10 10:12:21;;;;;;;;;10.33;7.67;;;29.36;100843.77;;;;117368;1191;24707;-60
2022/09/10 10:14:50;;;;;;;;;9.33;8.67;;;29.53;100841.80;;;;117042;1193;25089;-60
2022/09/10 10:17:29;;;;;;;;;9.50;9.00;;;29.56;100841.67;;;;116956;1193;25623;-58
2022/09/10 10:19:57;;;;;;;;;10.67;9.33;;;29.53;100838.38;;;;117120;1192;25571;-58
2022/09/10 10:22:29;;;;;;;;;9.00;9.00;;;29.49;100832.23;;;;117170;1191;25099;-59
2022/09/10 10:24:59;;;;;;;;;10.00;10.00;;;29.43;100832.16;;;;117145;1191;25258;-59
2022/09/10 10:27:40;;;;;;;;;11.25;10.25;;;29.40;100830.39;;;;117064;1192;24905;-57
2022/09/10 10:30:20;;;;;;;;;10.75;10.75;;;29.37;100827.84;;;;117589;1193;25060;-62
2022/09/10 10:32:57;;;;;;;;;11.75;10.75;;;29.52;100831.92;;;;117081;1191;25453;-60
2022/09/10 10:35:31;;;;;;;;;11.67;8.67;;;29.50;100826.53;;;;117115;1193;25388;-59
2022/09/10 10:38:25;;;;;;;;;9.00;9.00;;;29.46;100818.49;;;;117041;1193;25634;-60
2022/09/10 10:41:02;;;;;;;;;13.75;12.00;;;29.45;100820.64;;;;117085;1193;25257;-60
2022/09/10 10:43:56;;;;;;;;;12.75;10.75;;;29.39;100814.53;;;;117122;1193;25099;-59
2022/09/10 10:46:52;;;;;;;;;10.67;10.67;;;29.40;100810.39;;;;116963;1193;25007;-60
2022/09/10 10:49:44;;;;;;;;;11.50;10.50;;;29.40;100810.02;;;;117168;1192;25775;-57
2022/09/10 10:52:26;;;;;;;;;10.50;10.50;;;29.42;100802.55;;;;117069;1193;24885;-60
2022/09/10 10:55:22;;;;;;;;;10.25;10.25;;;29.40;100799.80;;;;117104;1191;25306;-58
2022/09/10 10:58:06;;;;;;;;;11.00;9.00;;;29.36;100797.17;;;;117079;1192;24831;-59
2022/09/10 11:00:49;;;;;;;;;12.75;11.25;;;29.30;100795.46;;;;117099;1193;25119;-59
2022/09/10 11:03:26;;;;;;;;;14.75;11.25;;;29.25;100793.73;;;;117030;1192;25205;-61
2022/09/10 11:05:59;;;;;;;;;15.25;11.00;;;29.27;100797.17;;;;117031;1191;25312;-63
2022/09/10 11:08:44;;;;;;;;;14.00;11.00;;;29.22;100795.98;;;;116980;1193;25321;-59
2022/09/10 11:11:32;;;;;;;;;11.25;9.75;;;29.23;100788.48;;;;117007;1193;25337;-59
2022/09/10 11:14:47;;;;;;;;;11.25;10.25;;;29.31;100790.80;;;;117030;1193;25703;-59
2022/09/10 11:17:38;;;;;;;;;12.67;11.00;;;29.44;100780.14;;;;117064;1193;25327;-59
2022/09/10 11:20:55;;;;;;;;;15.00;9.50;;;29.55;100764.05;;;;117137;1192;25116;-57
2022/09/10 11:23:38;;;;;;;;;8.67;8.67;;;29.62;100759.42;;;;116862;1193;25287;-57
2022/09/10 11:26:13;;;;;;;;;9.75;9.25;;;29.55;100760.04;;;;117054;1193;25649;-58
2022/09/10 11:29:04;;;;;;;;;8.25;7.50;;;29.58;100755.46;;;;117162;1192;25066;-62
2022/09/10 11:31:39;;;;;;;;;14.75;12.50;;;29.62;100745.90;;;;117097;1192;26178;-60
2022/09/10 11:34:43;;;;;;;;;12.25;10.25;;;29.53;100741.16;;;;117017;1193;24803;-61
2022/09/10 11:37:49;;;;;;;;;14.33;10.33;;;29.55;100739.20;;;;117044;1193;26047;-62
2022/09/10 11:40:45;;;;;;;;;13.00;9.75;;;29.58;100738.30;;;;116713;1194;25692;-61
2022/09/10 11:43:27;;;;;;;;;10.00;8.33;;;29.62;100741.15;;;;117026;1192;24805;-60
2022/09/10 11:45:59;;;;;;;;;13.00;10.50;;;29.62;100731.64;;;;117102;1193;24796;-61
2022/09/10 11:48:43;;;;;;;;;8.33;8.00;;;29.56;100729.61;;;;116997;1193;25673;-62
2022/09/10 11:51:29;;;;;;;;;11.33;9.00;;;29.37;100726.21;;;;116854;1193;25354;-61
2022/09/10 11:53:58;;;;;;;;;8.25;8.25;;;29.46;100718.05;;;;117098;1193;25777;-62
2022/09/10 11:56:30;;;;;;;;;11.00;10.50;;;29.53;100709.94;;;;116915;1193;25608;-62
2022/09/10 11:59:16;;;;;;;;;10.00;10.00;;;29.41;100711.31;;;;117063;1192;25294;-63
2022/09/10 12:01:48;;;;;;;;;8.25;8.25;;;29.45;100709.95;;;;117218;1191;25086;-66
2022/09/10 12:04:45;;;;;;;;;9.75;8.75;;;29.45;100708.56;;;;117258;1191;25404;-62
2022/09/10 12:07:44;;;;;;;;;7.67;6.33;;;29.47;100704.23;;;;117207;1193;25238;-62
2022/09/10 12:10:54;;;;;;;;;9.25;9.25;;;29.47;100695.54;;;;117077;1192;25507;-64
2022/09/10 12:13:22;;;;;;;;;10.25;7.75;;;29.45;100680.40;;;;117128;1193;25082;-61
2022/09/10 12:15:57;;;;;;;;;10.50;9.00;;;29.41;100673.09;;;;117057;1193;25746;-62
2022/09/10 12:18:30;;;;;;;;;11.00;7.50;;;29.39;100678.64;;;;117075;1193;26527;-62
2022/09/10 12:21:05;;;;;;;;;7.00;7.00;;;29.39;100666.78;;;;117132;1192;25798;-62
2022/09/10 12:23:36;;;;;;;;;8.50;8.50;;;29.37;100664.09;;;;117023;1193;25175;-61
2022/09/10 12:26:10;;;;;;;;;10.67;9.00;;;29.37;100665.61;;;;117144;1193;25470;-63